Time;durP1;ratioP1;P1;durP2;ratioP2;P2;SDS_P1;SDS_P2;PMS_P1;PMS_P2;Temp;Humidity;BMP_temperature;BMP_pressure;BME280_temperature;BME280_humidity;BME280_pressure;Samples;Min_cycle;Max_cycle;Signal;HPM_P1;HPM_P2
2021/09/17 07:56:33;;;;;;;21.75;10.93;;;23.40;99.90;;;;;;4974984;23;20266;-71
2021/09/17 07:59:00;;;;;;;23.77;10.60;;;23.50;99.90;;;;;;4977852;28;20622;-70
2021/09/17 08:01:27;;;;;;;27.48;11.75;;;23.90;99.90;;;;;;4977640;28;20203;-73
2021/09/17 08:03:53;;;;;;;24.67;11.20;;;24.00;99.90;;;;;;4952371;28;20594;-73
2021/09/17 08:06:20;;;;;;;27.23;12.75;;;23.70;99.90;;;;;;4938280;29;20664;-73
2021/09/17 08:08:47;;;;;;;26.42;10.98;;;23.40;99.90;;;;;;4938539;29;20722;-74
2021/09/17 08:11:13;;;;;;;22.27;11.15;;;23.60;99.90;;;;;;4938594;29;20215;-74
2021/09/17 08:13:42;;;;;;;24.42;11.23;;;23.90;99.90;;;;;;4957215;28;20224;-74
2021/09/17 08:16:08;;;;;;;25.10;11.90;;;24.00;99.90;;;;;;4957591;28;20219;-73
2021/09/17 08:18:35;;;;;;;24.88;11.30;;;24.20;99.90;;;;;;4957608;28;20203;-73
2021/09/17 08:21:02;;;;;;;27.90;12.25;;;23.90;99.90;;;;;;4957700;28;20208;-73
2021/09/17 08:23:29;;;;;;;26.92;11.60;;;23.70;99.90;;;;;;4957138;28;20234;-75
2021/09/17 08:25:56;;;;;;;26.88;11.57;;;23.60;99.90;;;;;;4958130;28;20211;-74
2021/09/17 08:28:24;;;;;;;27.10;11.40;;;23.50;99.90;;;;;;4957313;28;20706;-74
2021/09/17 08:30:52;;;;;;;23.95;10.77;;;23.60;99.90;;;;;;4957440;28;20215;-74
2021/09/17 08:33:19;;;;;;;26.60;11.98;;;23.60;99.90;;;;;;4956767;28;20232;-74
2021/09/17 08:35:46;;;;;;;27.02;11.73;;;23.70;99.90;;;;;;4957093;28;20212;-74
2021/09/17 08:38:13;;;;;;;24.73;10.98;;;23.90;99.90;;;;;;4957289;28;20300;-74
2021/09/17 08:40:42;;;;;;;26.63;11.85;;;24.10;99.90;;;;;;4957082;28;20211;-74
2021/09/17 08:43:09;;;;;;;25.85;12.40;;;24.40;99.90;;;;;;4956924;28;20232;-74
2021/09/17 08:45:36;;;;;;;23.77;9.88;;;24.50;99.90;;;;;;4957202;29;20694;-74
2021/09/17 08:48:05;;;;;;;23.65;10.32;;;24.20;99.90;;;;;;4958787;28;20219;-74
2021/09/17 08:50:32;;;;;;;22.58;10.20;;;24.30;99.90;;;;;;4958904;28;20679;-74
2021/09/17 08:52:58;;;;;;;22.20;9.80;;;24.40;99.90;;;;;;4937708;29;20228;-73
2021/09/17 08:55:25;;;;;;;21.15;9.68;;;24.20;99.90;;;;;;4937222;29;20216;-73
2021/09/17 08:57:52;;;;;;;18.67;8.32;;;24.00;99.90;;;;;;4937416;29;20216;-73
2021/09/17 09:00:42;;;;;;;16.95;7.85;;;24.00;99.90;;;;;;4937839;29;20231;-73
2021/09/17 09:03:11;;;;;;;18.10;8.02;;;24.20;99.90;;;;;;4942271;28;20228;-75
2021/09/17 09:05:41;;;;;;;17.40;7.50;;;24.00;99.90;;;;;;4955443;28;20742;-76
2021/09/17 09:08:08;;;;;;;16.33;7.90;;;23.90;99.90;;;;;;4959248;28;20294;-74
2021/09/17 09:10:36;;;;;;;12.98;6.57;;;24.00;99.90;;;;;;4974730;28;20671;-74
2021/09/17 09:13:05;;;;;;;14.45;7.18;;;24.00;99.90;;;;;;4969462;28;20389;-76
2021/09/17 09:15:34;;;;;;;14.30;6.90;;;24.00;99.90;;;;;;4956571;29;20616;-78
2021/09/17 09:18:03;;;;;;;14.45;6.82;;;24.00;99.90;;;;;;4955744;28;20298;-78
2021/09/17 09:20:32;;;;;;;15.70;7.13;;;23.60;99.90;;;;;;4956988;28;20223;-78
2021/09/17 09:23:15;;;;;;;11.82;6.35;;;23.50;99.90;;;;;;4957054;28;20228;-77
2021/09/17 09:25:56;;;;;;;13.95;6.45;;;23.40;99.90;;;;;;4956915;28;20215;-79
2021/09/17 09:28:25;;;;;;;15.70;6.65;;;23.20;99.90;;;;;;4956726;29;20347;-77
2021/09/17 09:30:53;;;;;;;12.63;6.28;;;22.80;99.90;;;;;;4956555;28;20208;-78
2021/09/17 09:33:31;;;;;;;13.32;6.68;;;22.60;99.90;;;;;;4956977;28;20235;-79
2021/09/17 09:36:05;;;;;;;10.63;5.90;;;22.60;99.90;;;;;;4956819;28;20262;-78
2021/09/17 09:38:41;;;;;;;9.05;4.72;;;22.40;99.90;;;;;;4956544;28;20208;-78
2021/09/17 09:41:12;;;;;;;8.20;4.63;;;22.30;99.90;;;;;;4956557;29;20204;-77
2021/09/17 09:43:40;;;;;;;10.77;4.85;;;22.30;99.90;;;;;;4956786;28;20236;-78
2021/09/17 09:46:28;;;;;;;10.95;5.07;;;22.30;99.90;;;;;;4956551;28;20212;-77
2021/09/17 09:49:18;;;;;;;8.57;4.93;;;22.30;99.90;;;;;;4956567;28;20235;-78
2021/09/17 09:51:58;;;;;;;7.25;4.35;;;22.20;99.90;;;;;;4956378;29;20212;-78
2021/09/17 09:54:28;;;;;;;9.23;4.40;;;22.20;99.90;;;;;;4956294;29;20210;-77
2021/09/17 09:56:55;;;;;;;9.10;4.45;;;22.30;99.90;;;;;;4943850;28;20239;-74
2021/09/17 09:59:25;;;;;;;8.70;4.55;;;22.30;99.90;;;;;;4955504;29;20222;-75
2021/09/17 10:01:54;;;;;;;10.73;4.28;;;22.20;99.90;;;;;;4963747;28;20709;-76
2021/09/17 10:04:22;;;;;;;9.55;4.72;;;22.20;99.90;;;;;;4975238;28;20207;-75
2021/09/17 10:06:54;;;;;;;9.85;5.18;;;22.30;99.90;;;;;;4939157;28;20208;-74
2021/09/17 10:09:23;;;;;;;9.30;4.07;;;22.50;99.90;;;;;;4936305;29;20236;-74
2021/09/17 10:11:49;;;;;;;11.80;4.35;;;22.60;99.90;;;;;;4936207;29;20228;-75
2021/09/17 10:14:17;;;;;;;6.43;4.03;;;22.80;99.90;;;;;;4956990;28;20207;-75
2021/09/17 10:16:48;;;;;;;8.75;3.75;;;22.70;99.90;;;;;;4941525;28;20303;-73
2021/09/17 10:19:19;;;;;;;9.20;4.40;;;22.70;99.90;;;;;;4936516;29;20205;-75
2021/09/17 10:21:54;;;;;;;9.30;4.47;;;22.70;99.90;;;;;;4935925;29;20695;-72
2021/09/17 10:24:38;;;;;;;7.65;4.50;;;22.90;99.90;;;;;;4936401;29;20219;-73
2021/09/17 10:27:07;;;;;;;9.88;4.80;;;22.90;99.90;;;;;;4935398;28;20756;-71
2021/09/17 10:29:36;;;;;;;9.75;4.93;;;22.90;99.90;;;;;;4935891;29;20236;-73
2021/09/17 10:32:05;;;;;;;10.18;5.63;;;23.00;99.90;;;;;;4935968;29;20229;-75
2021/09/17 10:34:39;;;;;;;11.40;4.95;;;22.90;99.90;;;;;;4935711;29;20695;-75
2021/09/17 10:37:06;;;;;;;7.82;4.18;;;22.90;99.90;;;;;;4935458;29;20208;-75
2021/09/17 10:39:35;;;;;;;12.70;7.25;;;23.00;99.90;;;;;;4935939;29;20212;-74
2021/09/17 10:42:11;;;;;;;9.80;4.82;;;23.00;99.90;;;;;;4935842;29;20695;-73
2021/09/17 10:45:15;;;;;;;5.47;2.80;;;23.00;99.90;;;;;;4935742;29;20263;-74
2021/09/17 10:47:58;;;;;;;4.60;2.40;;;22.90;99.90;;;;;;4935608;29;20212;-74
2021/09/17 10:50:42;;;;;;;7.35;2.53;;;22.80;99.90;;;;;;4949912;28;20231;-76
2021/09/17 10:53:10;;;;;;;6.25;2.72;;;22.80;99.90;;;;;;4974321;28;20231;-76
2021/09/17 10:56:03;;;;;;;2.70;1.70;;;22.70;99.90;;;;;;4974423;28;20211;-77
2021/09/17 10:58:31;;;;;;;3.53;2.15;;;22.70;99.90;;;;;;4970660;28;20211;-77
2021/09/17 11:01:01;;;;;;;7.35;3.25;;;22.70;99.90;;;;;;4974571;28;20203;-76
2021/09/17 11:03:56;;;;;;;4.55;2.60;;;22.70;99.90;;;;;;4974622;28;20227;-75
2021/09/17 11:06:26;;;;;;;5.80;2.70;;;22.70;99.90;;;;;;4974393;28;20211;-76
2021/09/17 11:08:55;;;;;;;5.25;2.10;;;22.70;99.90;;;;;;4974508;28;20674;-75
2021/09/17 11:11:24;;;;;;;3.63;2.00;;;22.70;99.90;;;;;;4974485;28;20207;-76
2021/09/17 11:13:52;;;;;;;5.00;2.83;;;22.70;99.90;;;;;;4975666;28;20233;-77
2021/09/17 11:16:20;;;;;;;3.17;2.13;;;22.80;99.90;;;;;;4974753;28;20211;-76
2021/09/17 11:18:52;;;;;;;4.93;2.78;;;22.80;99.90;;;;;;4974902;28;20207;-76
2021/09/17 11:21:19;;;;;;;6.38;2.80;;;23.00;99.90;;;;;;4974689;28;20662;-76
2021/09/17 11:23:48;;;;;;;5.10;2.53;;;23.00;99.90;;;;;;4974879;28;20229;-77
2021/09/17 11:26:19;;;;;;;6.25;2.83;;;23.00;99.90;;;;;;4974937;28;20212;-77
2021/09/17 11:28:57;;;;;;;5.13;2.60;;;23.10;99.90;;;;;;4974311;28;20214;-77
2021/09/17 11:31:26;;;;;;;5.20;2.88;;;23.10;99.90;;;;;;4974230;28;20214;-76
2021/09/17 11:33:57;;;;;;;4.65;2.50;;;23.30;99.90;;;;;;4974123;28;20261;-76
2021/09/17 11:36:37;;;;;;;4.85;2.90;;;23.30;99.90;;;;;;4974447;28;20218;-77
2021/09/17 11:39:17;;;;;;;4.28;2.42;;;23.30;99.90;;;;;;4974479;28;20239;-77
2021/09/17 11:41:45;;;;;;;3.13;1.88;;;23.30;99.90;;;;;;4973944;28;20562;-76
2021/09/17 11:44:37;;;;;;;3.40;2.35;;;23.30;99.90;;;;;;4974067;28;20211;-74
2021/09/17 11:47:05;;;;;;;5.53;2.45;;;23.60;99.90;;;;;;4973953;28;20242;-76
2021/09/17 11:49:34;;;;;;;4.40;2.15;;;23.60;99.90;;;;;;4973883;28;20589;-77
2021/09/17 11:52:02;;;;;;;4.07;1.95;;;23.60;99.90;;;;;;4973743;28;20725;-76
2021/09/17 11:54:29;;;;;;;4.63;2.67;;;23.60;99.90;;;;;;4973890;28;20666;-76
2021/09/17 11:57:04;;;;;;;4.32;2.60;;;23.50;99.90;;;;;;4973858;28;20570;-77
2021/09/17 11:59:36;;;;;;;4.07;2.33;;;23.30;99.90;;;;;;4974018;28;20210;-76
2021/09/17 12:02:15;;;;;;;4.93;3.03;;;23.20;99.90;;;;;;4974181;28;20277;-77
2021/09/17 12:04:43;;;;;;;3.45;1.90;;;23.30;99.90;;;;;;4973972;28;20506;-77
2021/09/17 12:07:11;;;;;;;4.53;1.98;;;23.40;99.90;;;;;;4974063;28;20207;-76
2021/09/17 12:09:37;;;;;;;4.18;2.30;;;23.40;99.90;;;;;;4973579;28;20682;-75
2021/09/17 12:12:04;;;;;;;4.63;2.20;;;23.40;99.90;;;;;;4973593;28;20223;-77
2021/09/17 12:14:32;;;;;;;5.65;2.50;;;23.40;99.90;;;;;;4973783;28;20211;-78
2021/09/17 12:17:04;;;;;;;4.25;2.50;;;23.40;99.90;;;;;;4973965;28;20780;-76
2021/09/17 12:19:31;;;;;;;3.88;2.40;;;23.50;99.90;;;;;;4973944;28;20700;-76
2021/09/17 12:22:00;;;;;;;5.30;2.88;;;23.50;99.90;;;;;;4973754;28;20239;-76
2021/09/17 12:24:27;;;;;;;3.78;2.25;;;23.50;99.90;;;;;;4973660;28;20208;-77
2021/09/17 12:26:55;;;;;;;5.00;2.63;;;23.50;99.90;;;;;;4973457;28;20219;-76
2021/09/17 12:29:23;;;;;;;5.65;2.97;;;23.60;99.90;;;;;;4974774;28;20238;-76
2021/09/17 12:31:51;;;;;;;4.38;2.45;;;23.60;99.90;;;;;;4976928;28;20207;-76
2021/09/17 12:34:21;;;;;;;5.35;3.33;;;23.60;99.90;;;;;;4977824;28;20207;-75
2021/09/17 12:36:50;;;;;;;7.22;3.17;;;23.60;99.90;;;;;;4977257;28;20211;-74
2021/09/17 12:39:22;;;;;;;5.68;3.08;;;23.60;99.90;;;;;;4977062;28;20243;-76
2021/09/17 12:42:05;;;;;;;7.05;2.90;;;23.70;99.90;;;;;;4976943;28;20245;-70
2021/09/17 12:44:39;;;;;;;5.07;2.75;;;23.80;99.90;;;;;;4977172;28;20547;-76
2021/09/17 12:47:07;;;;;;;4.60;3.13;;;23.70;99.90;;;;;;4977150;28;20554;-76
2021/09/17 12:49:34;;;;;;;5.05;3.10;;;23.80;99.90;;;;;;4976647;28;20565;-77
2021/09/17 12:52:01;;;;;;;6.07;3.05;;;23.80;99.90;;;;;;4976736;28;20235;-76
2021/09/17 12:54:34;;;;;;;4.05;2.53;;;23.60;99.90;;;;;;4976959;28;20207;-76
2021/09/17 12:57:15;;;;;;;3.78;2.03;;;23.80;99.90;;;;;;4976526;28;20689;-76
2021/09/17 12:59:57;;;;;;;4.05;2.45;;;24.00;99.90;;;;;;4977027;28;20674;-76
2021/09/17 13:02:26;;;;;;;3.53;2.22;;;24.00;99.90;;;;;;4976678;28;20714;-76
2021/09/17 13:04:58;;;;;;;5.05;2.47;;;24.10;99.90;;;;;;4976638;28;20285;-76
2021/09/17 13:07:25;;;;;;;4.00;2.30;;;24.20;99.90;;;;;;4959388;28;20238;-76
2021/09/17 13:09:52;;;;;;;4.05;2.40;;;24.20;99.90;;;;;;4976564;28;20234;-74
2021/09/17 13:12:19;;;;;;;5.72;2.63;;;24.20;99.90;;;;;;4976657;28;20227;-77
2021/09/17 13:14:45;;;;;;;3.95;2.45;;;24.10;99.90;;;;;;4976654;28;20207;-76
2021/09/17 13:17:13;;;;;;;5.18;2.03;;;24.10;99.90;;;;;;4976424;28;20214;-76
2021/09/17 13:19:41;;;;;;;2.75;1.80;;;24.10;99.90;;;;;;4976215;28;20217;-75
2021/09/17 13:22:08;;;;;;;4.35;1.73;;;24.10;99.90;;;;;;4976461;28;20266;-77
2021/09/17 13:24:35;;;;;;;4.72;2.28;;;24.10;99.90;;;;;;4976120;28;20211;-75
2021/09/17 13:27:02;;;;;;;2.83;1.80;;;23.90;99.90;;;;;;4976216;28;20203;-76
2021/09/17 13:29:29;;;;;;;6.38;1.83;;;23.80;99.90;;;;;;4976291;28;20207;-77
2021/09/17 13:31:55;;;;;;;2.45;1.60;;;23.90;99.90;;;;;;4976246;28;20666;-76
2021/09/17 13:34:22;;;;;;;2.83;1.70;;;23.80;99.90;;;;;;4976006;28;20207;-77
2021/09/17 13:36:50;;;;;;;3.08;1.75;;;23.80;99.90;;;;;;4976000;28;20211;-77
2021/09/17 13:39:17;;;;;;;3.53;1.90;;;23.80;99.90;;;;;;4976272;28;20233;-75
2021/09/17 13:41:44;;;;;;;4.03;2.03;;;23.80;99.90;;;;;;4975881;28;20215;-76
2021/09/17 13:44:11;;;;;;;4.05;1.90;;;23.80;99.90;;;;;;4975854;28;20221;-77
2021/09/17 13:46:37;;;;;;;2.88;1.50;;;23.80;99.90;;;;;;4975796;28;20662;-76
2021/09/17 13:49:05;;;;;;;1.75;1.30;;;23.80;99.90;;;;;;4975731;28;20204;-74
2021/09/17 13:51:31;;;;;;;3.83;1.70;;;23.80;99.90;;;;;;4975909;28;20239;-75
2021/09/17 13:54:00;;;;;;;4.75;1.92;;;23.80;99.90;;;;;;4975752;28;20570;-76
2021/09/17 13:56:27;;;;;;;2.65;1.85;;;23.70;99.90;;;;;;4976275;28;20245;-76
2021/09/17 13:58:53;;;;;;;2.22;1.52;;;23.80;99.90;;;;;;4975680;28;20230;-76
2021/09/17 14:01:20;;;;;;;2.40;1.42;;;23.70;99.90;;;;;;4975556;28;20204;-76
2021/09/17 14:03:47;;;;;;;3.40;1.67;;;23.80;99.90;;;;;;4975778;28;20258;-76
2021/09/17 14:06:14;;;;;;;1.88;1.30;;;23.80;99.90;;;;;;4975718;28;20218;-76
2021/09/17 14:08:41;;;;;;;2.95;1.60;;;23.80;99.90;;;;;;4975235;28;20211;-75
2021/09/17 14:11:09;;;;;;;3.22;1.80;;;23.80;99.90;;;;;;4975347;28;20582;-75
2021/09/17 14:13:36;;;;;;;3.97;2.30;;;23.80;99.90;;;;;;4975316;28;20227;-76
2021/09/17 14:16:04;;;;;;;3.25;2.10;;;23.60;99.90;;;;;;4975257;28;20211;-75
2021/09/17 14:18:30;;;;;;;4.07;2.05;;;23.70;99.90;;;;;;4975318;28;20211;-74
2021/09/17 14:20:57;;;;;;;3.03;1.75;;;23.70;99.90;;;;;;4975327;28;20217;-76
2021/09/17 14:23:24;;;;;;;2.45;1.83;;;23.90;99.90;;;;;;4975122;28;20586;-76
2021/09/17 14:25:51;;;;;;;3.83;2.10;;;23.90;99.90;;;;;;4975206;28;20218;-74
2021/09/17 14:28:19;;;;;;;3.33;1.77;;;23.90;99.90;;;;;;4974805;28;20203;-75
2021/09/17 14:30:47;;;;;;;3.35;1.88;;;23.80;99.90;;;;;;4974663;28;20238;-78
2021/09/17 14:33:14;;;;;;;3.60;2.30;;;23.70;99.90;;;;;;4974900;28;20230;-78
2021/09/17 14:35:42;;;;;;;5.32;2.03;;;23.60;99.90;;;;;;4974915;28;20215;-79
2021/09/17 14:38:10;;;;;;;2.92;1.73;;;23.80;99.90;;;;;;4974758;28;20215;-71
2021/09/17 14:40:37;;;;;;;3.72;1.63;;;23.80;99.90;;;;;;4974907;28;20211;-78
2021/09/17 14:43:04;;;;;;;2.40;1.67;;;23.80;99.90;;;;;;4974503;28;20231;-78
2021/09/17 14:45:33;;;;;;;3.00;1.98;;;23.70;99.90;;;;;;4975072;28;20203;-77
2021/09/17 14:48:00;;;;;;;4.68;1.98;;;23.70;99.90;;;;;;4974863;28;20207;-78
2021/09/17 14:50:26;;;;;;;3.55;2.10;;;23.50;99.90;;;;;;4974847;28;20231;-79
2021/09/17 14:52:53;;;;;;;2.28;1.40;;;23.60;99.90;;;;;;4974202;28;20728;-79
2021/09/17 14:55:20;;;;;;;2.65;1.75;;;23.50;99.90;;;;;;4974502;28;20203;-79
2021/09/17 14:57:48;;;;;;;3.03;1.80;;;23.40;99.90;;;;;;4974008;28;20309;-76
2021/09/17 15:00:15;;;;;;;4.13;1.75;;;23.40;99.90;;;;;;4974822;28;20211;-78
2021/09/17 15:02:43;;;;;;;4.93;3.03;;;23.50;99.90;;;;;;4974432;28;20234;-78
2021/09/17 15:05:11;;;;;;;2.47;1.65;;;23.60;99.90;;;;;;4974364;28;20207;-79
2021/09/17 15:07:38;;;;;;;2.22;1.60;;;23.60;99.90;;;;;;4974483;28;20567;-76
2021/09/17 15:10:05;;;;;;;2.15;1.50;;;23.60;99.90;;;;;;4974420;28;20209;-79
2021/09/17 15:12:32;;;;;;;2.55;1.77;;;23.60;99.90;;;;;;4973884;28;20246;-79
2021/09/17 15:14:58;;;;;;;3.55;1.50;;;23.60;99.90;;;;;;4974780;28;20211;-79
2021/09/17 15:17:25;;;;;;;3.15;1.80;;;23.70;99.90;;;;;;4974424;28;20210;-79
2021/09/17 15:19:53;;;;;;;2.33;1.45;;;23.70;99.90;;;;;;4974302;28;20214;-78
2021/09/17 15:22:20;;;;;;;2.20;1.40;;;23.70;99.90;;;;;;4974513;28;20235;-79
2021/09/17 15:24:47;;;;;;;3.13;1.55;;;23.80;99.90;;;;;;4974078;28;20210;-80
2021/09/17 15:27:14;;;;;;;3.25;1.75;;;23.80;99.90;;;;;;4974033;28;20207;-79
2021/09/17 15:29:40;;;;;;;3.03;1.85;;;23.80;99.90;;;;;;4974521;28;20211;-80
2021/09/17 15:32:08;;;;;;;2.50;1.25;;;23.70;99.90;;;;;;4973867;28;20271;-79
2021/09/17 15:34:35;;;;;;;2.60;1.60;;;23.60;99.90;;;;;;4950177;28;20700;-76
2021/09/17 15:37:05;;;;;;;3.33;1.73;;;23.50;99.90;;;;;;4953091;28;20651;-79
2021/09/17 15:39:33;;;;;;;2.65;1.50;;;23.70;99.90;;;;;;4950676;28;20655;-77
2021/09/17 15:41:59;;;;;;;3.70;1.90;;;23.70;99.90;;;;;;4955278;28;20745;-77
2021/09/17 15:44:32;;;;;;;2.97;1.40;;;23.70;99.90;;;;;;4953291;28;20204;-77
2021/09/17 15:46:59;;;;;;;4.60;1.80;;;23.60;99.90;;;;;;4965678;28;20211;-77
2021/09/17 15:49:26;;;;;;;2.78;1.60;;;23.50;99.90;;;;;;4964901;28;20578;-76
2021/09/17 15:51:52;;;;;;;1.83;1.42;;;23.50;99.90;;;;;;4952961;28;20258;-76
2021/09/17 15:54:21;;;;;;;2.13;1.30;;;23.30;99.90;;;;;;4961582;28;20570;-78
2021/09/17 15:56:48;;;;;;;2.28;1.40;;;23.20;99.90;;;;;;4972384;28;20773;-75
2021/09/17 15:59:14;;;;;;;2.45;1.40;;;23.20;99.90;;;;;;4957356;28;20215;-76
2021/09/17 16:01:42;;;;;;;4.63;1.70;;;23.30;99.90;;;;;;4937110;29;20689;-76
2021/09/17 16:04:09;;;;;;;2.25;1.50;;;23.20;99.90;;;;;;4938617;28;20212;-77
2021/09/17 16:06:36;;;;;;;2.15;1.40;;;23.00;99.90;;;;;;4941819;29;20212;-75
2021/09/17 16:09:03;;;;;;;1.88;1.05;;;22.90;99.90;;;;;;4943587;28;20218;-75
2021/09/17 16:11:31;;;;;;;4.15;1.67;;;22.80;99.90;;;;;;4957662;28;20241;-74
2021/09/17 16:13:58;;;;;;;1.52;1.15;;;22.70;99.90;;;;;;4948058;28;20216;-73
2021/09/17 16:16:25;;;;;;;2.10;1.30;;;22.60;99.90;;;;;;4938122;29;20209;-75
2021/09/17 16:18:51;;;;;;;2.38;1.35;;;22.60;99.90;;;;;;4938585;29;20213;-75
2021/09/17 16:21:18;;;;;;;1.67;1.20;;;22.60;99.90;;;;;;4938377;29;20215;-78
2021/09/17 16:23:45;;;;;;;1.40;1.10;;;22.70;99.90;;;;;;4938255;28;20656;-80
2021/09/17 16:26:12;;;;;;;1.42;0.80;;;22.60;99.90;;;;;;4938395;29;20567;-78
2021/09/17 16:28:40;;;;;;;1.90;1.13;;;22.50;99.90;;;;;;4953821;28;20204;-76
2021/09/17 16:31:07;;;;;;;2.92;1.38;;;22.40;99.90;;;;;;4968483;28;20232;-80
2021/09/17 16:33:35;;;;;;;2.80;1.30;;;22.30;99.90;;;;;;4937643;28;20220;-75
2021/09/17 16:36:01;;;;;;;1.38;1.20;;;22.40;99.90;;;;;;4937955;29;20213;-77
2021/09/17 16:38:28;;;;;;;2.15;1.30;;;22.20;99.90;;;;;;4938042;29;20205;-78
2021/09/17 16:40:55;;;;;;;1.85;1.25;;;22.10;99.90;;;;;;4937973;29;20220;-75
2021/09/17 16:43:22;;;;;;;1.50;1.20;;;21.90;99.90;;;;;;4937379;28;20657;-75
2021/09/17 16:45:51;;;;;;;5.55;1.58;;;21.90;99.90;;;;;;4953019;28;20211;-80
2021/09/17 16:48:17;;;;;;;3.38;1.50;;;21.80;99.90;;;;;;4978315;28;20217;-79
2021/09/17 16:50:44;;;;;;;2.20;1.35;;;21.80;99.90;;;;;;4976942;28;20235;-76
2021/09/17 16:53:11;;;;;;;4.00;1.42;;;21.50;99.90;;;;;;4968056;28;20235;-77
2021/09/17 16:55:38;;;;;;;2.75;1.70;;;21.40;99.90;;;;;;4958773;28;20211;-76
2021/09/17 16:58:05;;;;;;;1.90;1.50;;;21.40;99.90;;;;;;4976124;28;20203;-76
2021/09/17 17:00:32;;;;;;;2.85;1.80;;;21.30;99.90;;;;;;4948214;28;20209;-78
2021/09/17 17:03:00;;;;;;;2.08;1.52;;;21.20;99.90;;;;;;4938927;28;20232;-78
2021/09/17 17:05:27;;;;;;;2.72;1.98;;;21.10;99.90;;;;;;4956721;28;20212;-75
2021/09/17 17:07:54;;;;;;;3.15;1.50;;;21.10;99.90;;;;;;4957027;28;20208;-74
2021/09/17 17:10:21;;;;;;;4.38;1.90;;;21.00;99.90;;;;;;4935065;28;20215;-76
2021/09/17 17:12:49;;;;;;;3.95;1.52;;;20.80;99.90;;;;;;4936339;28;20778;-75
2021/09/17 17:15:16;;;;;;;1.70;1.50;;;20.80;99.90;;;;;;4935340;29;20642;-76
2021/09/17 17:17:42;;;;;;;2.90;1.60;;;20.80;99.90;;;;;;4936326;29;20263;-76
2021/09/17 17:20:12;;;;;;;2.22;1.63;;;20.70;99.90;;;;;;4954025;28;20208;-76
2021/09/17 17:22:39;;;;;;;2.20;1.60;;;20.60;99.90;;;;;;4955513;28;20238;-78
2021/09/17 17:25:07;;;;;;;2.65;1.65;;;20.50;99.90;;;;;;4954583;28;20680;-76
2021/09/17 17:27:34;;;;;;;2.38;1.45;;;20.40;99.90;;;;;;4956545;28;20340;-76
2021/09/17 17:30:01;;;;;;;3.03;1.67;;;20.30;99.90;;;;;;4957183;28;20675;-79
2021/09/17 17:32:29;;;;;;;2.88;1.63;;;20.20;99.90;;;;;;4956051;28;20338;-77
2021/09/17 17:34:57;;;;;;;2.85;2.00;;;20.20;99.90;;;;;;4955949;28;20671;-80
2021/09/17 17:37:25;;;;;;;2.15;1.48;;;20.10;99.90;;;;;;4956491;28;20216;-77
2021/09/17 17:39:52;;;;;;;2.35;1.60;;;20.00;99.90;;;;;;4956028;28;20208;-75
2021/09/17 17:42:19;;;;;;;4.47;1.88;;;19.90;99.90;;;;;;4956340;29;20235;-76
2021/09/17 17:44:46;;;;;;;3.63;1.70;;;19.90;99.90;;;;;;4956551;28;20212;-76
2021/09/17 17:47:13;;;;;;;1.95;1.60;;;19.80;99.90;;;;;;4956879;29;20204;-76
2021/09/17 17:49:40;;;;;;;3.22;1.58;;;19.70;99.90;;;;;;4956609;28;20686;-75
2021/09/17 17:52:08;;;;;;;2.65;1.70;;;19.60;99.90;;;;;;4956471;28;20240;-76
2021/09/17 17:54:37;;;;;;;2.30;1.70;;;19.50;99.90;;;;;;4956585;28;20515;-74
2021/09/17 17:57:04;;;;;;;2.50;1.80;;;19.40;99.90;;;;;;4956401;28;20216;-76
2021/09/17 17:59:32;;;;;;;2.72;1.80;;;19.30;99.90;;;;;;4956591;29;20204;-76
2021/09/17 18:01:59;;;;;;;2.95;1.95;;;19.20;99.90;;;;;;4956282;28;20319;-77
2021/09/17 18:04:26;;;;;;;4.07;1.80;;;19.20;99.90;;;;;;4956271;28;20214;-75
2021/09/17 18:06:53;;;;;;;3.45;1.80;;;19.00;99.90;;;;;;4956262;28;20548;-76
2021/09/17 18:09:20;;;;;;;4.90;1.83;;;18.90;99.90;;;;;;4956311;28;20203;-73
2021/09/17 18:11:48;;;;;;;3.58;1.80;;;18.90;99.90;;;;;;4956162;28;20232;-76
2021/09/17 18:14:15;;;;;;;2.90;1.75;;;18.80;99.90;;;;;;4950442;28;20212;-73
2021/09/17 18:16:42;;;;;;;3.27;1.93;;;18.80;99.90;;;;;;4946858;28;20216;-76
2021/09/17 18:19:09;;;;;;;3.80;2.13;;;18.70;99.90;;;;;;4955187;28;20706;-75
2021/09/17 18:21:37;;;;;;;3.75;2.22;;;18.60;99.90;;;;;;4968408;28;20225;-75
2021/09/17 18:24:06;;;;;;;2.67;1.70;;;18.50;99.90;;;;;;4969827;28;20218;-76
2021/09/17 18:26:33;;;;;;;4.75;2.45;;;18.40;99.90;;;;;;4935978;29;20243;-75
2021/09/17 18:29:01;;;;;;;2.95;1.63;;;18.40;99.90;;;;;;4936779;29;20632;-75
2021/09/17 18:31:28;;;;;;;5.50;2.03;;;18.40;99.90;;;;;;4936521;29;20239;-74
2021/09/17 18:33:55;;;;;;;3.45;2.35;;;18.30;99.90;;;;;;4961689;28;20310;-75
2021/09/17 18:36:22;;;;;;;2.77;2.07;;;18.30;99.90;;;;;;4935895;29;20695;-74
2021/09/17 18:38:49;;;;;;;6.33;2.20;;;18.20;99.90;;;;;;4935927;29;20267;-74
2021/09/17 18:41:16;;;;;;;4.37;2.20;;;18.20;99.90;;;;;;4935762;29;20683;-75
2021/09/17 18:43:43;;;;;;;3.53;2.00;;;18.10;99.90;;;;;;4937833;29;20608;-75
2021/09/17 18:46:11;;;;;;;8.23;2.40;;;18.10;99.90;;;;;;4936244;28;20216;-74
2021/09/17 18:48:40;;;;;;;7.43;2.70;;;18.00;99.90;;;;;;4936246;29;20212;-73
2021/09/17 18:51:07;;;;;;;6.63;2.97;;;18.00;99.90;;;;;;4941561;28;20358;-75
2021/09/17 18:53:34;;;;;;;7.80;3.17;;;17.90;99.90;;;;;;4939788;28;20237;-72
2021/09/17 18:56:01;;;;;;;4.30;2.57;;;17.90;99.90;;;;;;4936066;29;20224;-78
2021/09/17 18:58:28;;;;;;;8.03;3.27;;;17.80;99.90;;;;;;4936033;29;20568;-79
2021/09/17 19:00:55;;;;;;;6.87;3.60;;;17.80;99.90;;;;;;4936305;29;20219;-76
2021/09/17 19:03:24;;;;;;;6.33;2.80;;;17.80;99.90;;;;;;4935894;29;20671;-77
2021/09/17 19:05:50;;;;;;;5.53;3.40;;;17.90;99.90;;;;;;4936181;29;20208;-74
2021/09/17 19:08:17;;;;;;;6.60;3.40;;;17.90;99.90;;;;;;4936095;29;20209;-78
2021/09/17 19:10:44;;;;;;;5.93;3.40;;;17.90;99.90;;;;;;4936045;29;20204;-79
2021/09/17 19:13:11;;;;;;;5.73;3.00;;;17.90;99.90;;;;;;4935771;29;20244;-77
2021/09/17 19:15:38;;;;;;;5.53;3.67;;;17.80;99.90;;;;;;4935764;29;20208;-79
2021/09/17 19:18:05;;;;;;;8.97;3.73;;;17.70;99.90;;;;;;4936101;29;20209;-78
2021/09/17 19:20:35;;;;;;;6.47;3.90;;;17.70;99.90;;;;;;4936185;29;20209;-79
2021/09/17 19:23:02;;;;;;;5.93;3.00;;;17.70;99.90;;;;;;4935740;29;20360;-77
2021/09/17 19:25:30;;;;;;;7.00;3.90;;;17.60;99.90;;;;;;4935869;29;20227;-79
2021/09/17 19:27:58;;;;;;;7.37;4.00;;;17.60;99.90;;;;;;4935410;29;20209;-79
2021/09/17 19:30:26;;;;;;;5.60;3.47;;;17.40;99.90;;;;;;4935630;29;20232;-79
2021/09/17 19:32:53;;;;;;;7.57;3.13;;;17.40;99.90;;;;;;4935488;29;20599;-77
2021/09/17 19:35:20;;;;;;;7.80;2.73;;;17.40;99.90;;;;;;4935936;29;20208;-79
2021/09/17 19:37:54;;;;;;;5.07;3.07;;;17.40;99.90;;;;;;4935373;29;20208;-79
2021/09/17 19:40:21;;;;;;;6.37;3.30;;;17.40;99.90;;;;;;4935599;29;20212;-79
2021/09/17 19:42:49;;;;;;;6.27;3.10;;;17.30;99.90;;;;;;4935136;29;20229;-77
2021/09/17 19:45:16;;;;;;;4.93;2.67;;;17.20;99.90;;;;;;4934968;29;20209;-72
2021/09/17 19:47:43;;;;;;;5.83;3.30;;;17.10;99.90;;;;;;4936106;29;20223;-71
2021/09/17 19:50:11;;;;;;;6.53;3.23;;;17.00;99.90;;;;;;4935536;29;20205;-77
2021/09/17 19:52:38;;;;;;;13.80;3.30;;;17.00;99.90;;;;;;4935490;29;20607;-78
2021/09/17 19:55:07;;;;;;;4.90;3.00;;;17.00;99.90;;;;;;4935926;29;20212;-74
2021/09/17 19:57:36;;;;;;;4.23;2.70;;;17.00;99.90;;;;;;4935046;29;20225;-77
2021/09/17 20:00:03;;;;;;;5.27;2.67;;;16.90;99.90;;;;;;4935572;29;20312;-78
2021/09/17 20:02:30;;;;;;;5.20;2.60;;;16.90;99.90;;;;;;4935350;29;20236;-78
2021/09/17 20:04:57;;;;;;;4.47;3.00;;;16.80;99.90;;;;;;4935563;29;20208;-77
2021/09/17 20:07:24;;;;;;;6.77;2.80;;;16.80;99.90;;;;;;4935636;29;20213;-76
2021/09/17 20:09:51;;;;;;;5.00;2.80;;;16.70;99.90;;;;;;4935351;29;20664;-78
2021/09/17 20:12:19;;;;;;;5.43;3.00;;;16.70;99.90;;;;;;4934846;29;20678;-77
2021/09/17 20:14:46;;;;;;;5.07;3.30;;;16.80;99.90;;;;;;4935250;29;20205;-75
2021/09/17 20:17:12;;;;;;;5.10;3.17;;;16.70;99.90;;;;;;4935224;29;20212;-78
2021/09/17 20:19:39;;;;;;;5.60;3.30;;;16.60;99.90;;;;;;4935338;29;20217;-78
2021/09/17 20:22:06;;;;;;;4.43;2.80;;;16.60;99.90;;;;;;4934951;29;20244;-76
2021/09/17 20:24:33;;;;;;;4.87;2.90;;;16.50;99.90;;;;;;4934997;29;20213;-78
2021/09/17 20:27:00;;;;;;;4.73;3.00;;;16.60;99.90;;;;;;4935111;29;20215;-77
2021/09/17 20:29:28;;;;;;;3.90;2.57;;;16.60;99.90;;;;;;4935491;29;20731;-78
2021/09/17 20:31:59;;;;;;;4.00;2.80;;;16.60;99.90;;;;;;4935465;29;21045;-78
2021/09/17 20:34:32;;;;;;;4.37;2.67;;;16.60;99.90;;;;;;4935670;29;20669;-78
2021/09/17 20:37:00;;;;;;;4.73;3.17;;;16.60;99.90;;;;;;4935533;29;20235;-79
2021/09/17 20:39:29;;;;;;;6.60;3.20;;;16.60;99.90;;;;;;4935287;29;20672;-78
2021/09/17 20:41:56;;;;;;;5.23;3.30;;;16.50;99.90;;;;;;4935269;29;20233;-75
2021/09/17 20:44:23;;;;;;;5.50;3.33;;;16.50;99.90;;;;;;4935173;29;20213;-79
2021/09/17 20:46:51;;;;;;;6.07;3.03;;;16.40;99.90;;;;;;4935272;29;20204;-79
2021/09/17 20:49:18;;;;;;;4.57;3.10;;;16.40;99.90;;;;;;4935177;29;20217;-75